sensor_id;sensor_type;location;lat;lon;timestamp;P1;durP1;ratioP1;P2;durP2;ratioP2
44110;SDS011;29774;52.664;5.074;2022-10-31T00:01:20;6.18;;;2.30;;
44110;SDS011;29774;52.664;5.074;2022-10-31T00:03:53;1.88;;;1.50;;
44110;SDS011;29774;52.664;5.074;2022-10-31T00:06:19;2.97;;;1.55;;
44110;SDS011;29774;52.664;5.074;2022-10-31T00:08:46;3.35;;;1.85;;
44110;SDS011;29774;52.664;5.074;2022-10-31T00:11:19;4.00;;;2.03;;
44110;SDS011;29774;52.664;5.074;2022-10-31T00:13:45;4.22;;;2.17;;
44110;SDS011;29774;52.664;5.074;2022-10-31T00:16:18;4.05;;;2.10;;
44110;SDS011;29774;52.664;5.074;2022-10-31T00:18:50;3.42;;;1.80;;
44110;SDS011;29774;52.664;5.074;2022-10-31T00:21:17;3.30;;;2.15;;
44110;SDS011;29774;52.664;5.074;2022-10-31T00:23:43;4.60;;;2.20;;
44110;SDS011;29774;52.664;5.074;2022-10-31T00:26:09;4.82;;;2.22;;
44110;SDS011;29774;52.664;5.074;2022-10-31T00:28:34;5.35;;;2.30;;
44110;SDS011;29774;52.664;5.074;2022-10-31T00:31:01;3.67;;;1.98;;
44110;SDS011;29774;52.664;5.074;2022-10-31T00:33:27;2.38;;;1.50;;
44110;SDS011;29774;52.664;5.074;2022-10-31T00:35:53;4.28;;;2.47;;
44110;SDS011;29774;52.664;5.074;2022-10-31T00:38:19;3.95;;;1.88;;
44110;SDS011;29774;52.664;5.074;2022-10-31T00:40:45;2.67;;;2.30;;
44110;SDS011;29774;52.664;5.074;2022-10-31T00:43:11;3.08;;;1.95;;
44110;SDS011;29774;52.664;5.074;2022-10-31T00:45:36;4.05;;;2.63;;
44110;SDS011;29774;52.664;5.074;2022-10-31T00:48:02;6.90;;;2.63;;
44110;SDS011;29774;52.664;5.074;2022-10-31T00:50:27;3.85;;;1.88;;
44110;SDS011;29774;52.664;5.074;2022-10-31T00:52:53;2.53;;;1.75;;
44110;SDS011;29774;52.664;5.074;2022-10-31T00:55:18;4.20;;;2.15;;
44110;SDS011;29774;52.664;5.074;2022-10-31T00:57:47;5.18;;;2.65;;
44110;SDS011;29774;52.664;5.074;2022-10-31T01:00:13;2.60;;;2.00;;
44110;SDS011;29774;52.664;5.074;2022-10-31T01:02:39;7.57;;;2.47;;
44110;SDS011;29774;52.664;5.074;2022-10-31T01:05:05;2.60;;;1.67;;
44110;SDS011;29774;52.664;5.074;2022-10-31T01:10:15;3.38;;;2.35;;
44110;SDS011;29774;52.664;5.074;2022-10-31T01:12:43;3.78;;;2.30;;
44110;SDS011;29774;52.664;5.074;2022-10-31T01:15:11;4.03;;;2.33;;
44110;SDS011;29774;52.664;5.074;2022-10-31T01:17:39;4.05;;;2.28;;
44110;SDS011;29774;52.664;5.074;2022-10-31T01:20:05;3.75;;;2.40;;
44110;SDS011;29774;52.664;5.074;2022-10-31T01:22:33;3.22;;;1.67;;
44110;SDS011;29774;52.664;5.074;2022-10-31T01:24:59;4.63;;;2.72;;
44110;SDS011;29774;52.664;5.074;2022-10-31T01:27:25;4.63;;;2.28;;
44110;SDS011;29774;52.664;5.074;2022-10-31T01:29:50;2.80;;;2.17;;
44110;SDS011;29774;52.664;5.074;2022-10-31T01:32:16;2.60;;;1.70;;
44110;SDS011;29774;52.664;5.074;2022-10-31T01:34:41;3.85;;;2.83;;
44110;SDS011;29774;52.664;5.074;2022-10-31T01:37:07;4.57;;;2.92;;
44110;SDS011;29774;52.664;5.074;2022-10-31T01:39:32;3.58;;;2.92;;
44110;SDS011;29774;52.664;5.074;2022-10-31T01:41:58;2.20;;;1.80;;
44110;SDS011;29774;52.664;5.074;2022-10-31T01:46:57;4.65;;;2.50;;
44110;SDS011;29774;52.664;5.074;2022-10-31T01:52:22;4.43;;;2.40;;
44110;SDS011;29774;52.664;5.074;2022-10-31T01:54:53;3.95;;;2.28;;
44110;SDS011;29774;52.664;5.074;2022-10-31T01:57:31;2.67;;;2.08;;
44110;SDS011;29774;52.664;5.074;2022-10-31T01:59:59;2.47;;;2.20;;
44110;SDS011;29774;52.664;5.074;2022-10-31T02:02:28;5.22;;;2.47;;
44110;SDS011;29774;52.664;5.074;2022-10-31T02:04:55;5.07;;;2.50;;
44110;SDS011;29774;52.664;5.074;2022-10-31T02:10:23;3.58;;;2.58;;
44110;SDS011;29774;52.664;5.074;2022-10-31T02:12:50;3.35;;;2.72;;
44110;SDS011;29774;52.664;5.074;2022-10-31T02:15:17;4.40;;;2.28;;
44110;SDS011;29774;52.664;5.074;2022-10-31T02:17:43;3.95;;;2.75;;
44110;SDS011;29774;52.664;5.074;2022-10-31T02:33:53;3.70;;;2.30;;
44110;SDS011;29774;52.664;5.074;2022-10-31T02:36:25;3.40;;;2.30;;
44110;SDS011;29774;52.664;5.074;2022-10-31T02:39:02;4.75;;;2.80;;
44110;SDS011;29774;52.664;5.074;2022-10-31T02:41:39;4.38;;;2.45;;
44110;SDS011;29774;52.664;5.074;2022-10-31T02:44:21;4.25;;;2.70;;
44110;SDS011;29774;52.664;5.074;2022-10-31T02:47:01;3.97;;;3.00;;
44110;SDS011;29774;52.664;5.074;2022-10-31T02:52:30;3.15;;;2.30;;
44110;SDS011;29774;52.664;5.074;2022-10-31T02:54:57;4.75;;;2.95;;
44110;SDS011;29774;52.664;5.074;2022-10-31T02:57:24;3.67;;;2.53;;
44110;SDS011;29774;52.664;5.074;2022-10-31T02:59:57;3.97;;;2.50;;
44110;SDS011;29774;52.664;5.074;2022-10-31T03:05:20;5.03;;;2.63;;
44110;SDS011;29774;52.664;5.074;2022-10-31T03:07:55;3.60;;;2.78;;
44110;SDS011;29774;52.664;5.074;2022-10-31T03:15:59;5.28;;;2.80;;
44110;SDS011;29774;52.664;5.074;2022-10-31T03:21:41;5.68;;;2.90;;
44110;SDS011;29774;52.664;5.074;2022-10-31T03:24:08;3.00;;;2.40;;
44110;SDS011;29774;52.664;5.074;2022-10-31T03:26:35;5.05;;;3.15;;
44110;SDS011;29774;52.664;5.074;2022-10-31T03:29:06;4.55;;;2.45;;
44110;SDS011;29774;52.664;5.074;2022-10-31T03:31:42;5.05;;;3.38;;
44110;SDS011;29774;52.664;5.074;2022-10-31T03:34:15;3.72;;;2.88;;
44110;SDS011;29774;52.664;5.074;2022-10-31T03:36:43;4.05;;;3.35;;
44110;SDS011;29774;52.664;5.074;2022-10-31T03:39:11;3.78;;;3.30;;
44110;SDS011;29774;52.664;5.074;2022-10-31T03:41:41;4.40;;;3.42;;
44110;SDS011;29774;52.664;5.074;2022-10-31T03:44:12;4.13;;;3.30;;
44110;SDS011;29774;52.664;5.074;2022-10-31T03:46:41;3.95;;;3.33;;
44110;SDS011;29774;52.664;5.074;2022-10-31T03:49:08;4.10;;;3.05;;
44110;SDS011;29774;52.664;5.074;2022-10-31T03:51:51;8.45;;;5.45;;
44110;SDS011;29774;52.664;5.074;2022-10-31T03:54:30;9.00;;;4.07;;
44110;SDS011;29774;52.664;5.074;2022-10-31T04:00:16;4.78;;;3.38;;
44110;SDS011;29774;52.664;5.074;2022-10-31T04:02:43;4.30;;;3.70;;
44110;SDS011;29774;52.664;5.074;2022-10-31T04:05:15;5.03;;;4.50;;
44110;SDS011;29774;52.664;5.074;2022-10-31T04:07:43;5.00;;;3.80;;
44110;SDS011;29774;52.664;5.074;2022-10-31T04:10:13;3.67;;;3.20;;
44110;SDS011;29774;52.664;5.074;2022-10-31T04:12:40;6.13;;;3.90;;
44110;SDS011;29774;52.664;5.074;2022-10-31T04:15:10;4.00;;;3.63;;
44110;SDS011;29774;52.664;5.074;2022-10-31T04:17:37;5.40;;;4.30;;
44110;SDS011;29774;52.664;5.074;2022-10-31T04:20:06;4.47;;;3.88;;
44110;SDS011;29774;52.664;5.074;2022-10-31T04:22:32;5.75;;;4.60;;
44110;SDS011;29774;52.664;5.074;2022-10-31T04:24:58;6.13;;;3.88;;
44110;SDS011;29774;52.664;5.074;2022-10-31T04:27:23;4.85;;;3.97;;
44110;SDS011;29774;52.664;5.074;2022-10-31T04:29:49;6.90;;;4.75;;
44110;SDS011;29774;52.664;5.074;2022-10-31T04:32:15;8.88;;;6.68;;
44110;SDS011;29774;52.664;5.074;2022-10-31T04:34:40;6.78;;;4.75;;
44110;SDS011;29774;52.664;5.074;2022-10-31T04:37:06;4.60;;;4.10;;
44110;SDS011;29774;52.664;5.074;2022-10-31T04:39:31;8.20;;;4.20;;
44110;SDS011;29774;52.664;5.074;2022-10-31T04:41:57;4.80;;;4.28;;
44110;SDS011;29774;52.664;5.074;2022-10-31T04:44:22;5.25;;;4.28;;
44110;SDS011;29774;52.664;5.074;2022-10-31T04:46:48;5.82;;;4.43;;
44110;SDS011;29774;52.664;5.074;2022-10-31T04:49:13;5.82;;;5.22;;
44110;SDS011;29774;52.664;5.074;2022-10-31T04:51:39;5.35;;;4.68;;
44110;SDS011;29774;52.664;5.074;2022-10-31T04:54:04;7.35;;;4.97;;
44110;SDS011;29774;52.664;5.074;2022-10-31T04:56:30;3.92;;;3.58;;
44110;SDS011;29774;52.664;5.074;2022-10-31T04:58:56;9.30;;;5.78;;
44110;SDS011;29774;52.664;5.074;2022-10-31T05:01:21;7.38;;;5.53;;
44110;SDS011;29774;52.664;5.074;2022-10-31T05:03:47;5.93;;;5.32;;
44110;SDS011;29774;52.664;5.074;2022-10-31T05:06:12;6.82;;;6.13;;
44110;SDS011;29774;52.664;5.074;2022-10-31T05:08:38;8.07;;;6.28;;
44110;SDS011;29774;52.664;5.074;2022-10-31T05:11:03;6.25;;;5.65;;
44110;SDS011;29774;52.664;5.074;2022-10-31T05:13:29;6.90;;;6.13;;
44110;SDS011;29774;52.664;5.074;2022-10-31T05:15:55;6.78;;;5.97;;
44110;SDS011;29774;52.664;5.074;2022-10-31T05:18:21;9.60;;;6.30;;
44110;SDS011;29774;52.664;5.074;2022-10-31T05:20:46;7.43;;;6.43;;
44110;SDS011;29774;52.664;5.074;2022-10-31T05:23:12;8.13;;;6.97;;
44110;SDS011;29774;52.664;5.074;2022-10-31T05:25:39;9.70;;;7.05;;
44110;SDS011;29774;52.664;5.074;2022-10-31T05:28:05;7.45;;;6.57;;
44110;SDS011;29774;52.664;5.074;2022-10-31T05:30:31;8.18;;;7.10;;
44110;SDS011;29774;52.664;5.074;2022-10-31T05:32:57;8.57;;;7.68;;
44110;SDS011;29774;52.664;5.074;2022-10-31T05:35:27;10.43;;;7.88;;
44110;SDS011;29774;52.664;5.074;2022-10-31T05:37:54;8.13;;;7.32;;
44110;SDS011;29774;52.664;5.074;2022-10-31T05:40:20;8.70;;;7.30;;
44110;SDS011;29774;52.664;5.074;2022-10-31T05:42:46;10.05;;;7.45;;
44110;SDS011;29774;52.664;5.074;2022-10-31T05:45:16;12.32;;;9.27;;
44110;SDS011;29774;52.664;5.074;2022-10-31T05:47:49;12.85;;;8.88;;
44110;SDS011;29774;52.664;5.074;2022-10-31T05:50:18;10.13;;;8.63;;
44110;SDS011;29774;52.664;5.074;2022-10-31T05:52:43;11.27;;;8.73;;
44110;SDS011;29774;52.664;5.074;2022-10-31T05:55:09;10.80;;;8.77;;
44110;SDS011;29774;52.664;5.074;2022-10-31T05:57:35;11.95;;;8.57;;
44110;SDS011;29774;52.664;5.074;2022-10-31T06:00:00;12.88;;;10.05;;
44110;SDS011;29774;52.664;5.074;2022-10-31T06:02:26;14.10;;;9.25;;
44110;SDS011;29774;52.664;5.074;2022-10-31T06:04:52;11.85;;;9.68;;
44110;SDS011;29774;52.664;5.074;2022-10-31T06:07:17;11.40;;;9.43;;
44110;SDS011;29774;52.664;5.074;2022-10-31T06:09:43;11.68;;;10.45;;
44110;SDS011;29774;52.664;5.074;2022-10-31T06:12:08;13.13;;;9.68;;
44110;SDS011;29774;52.664;5.074;2022-10-31T06:14:34;12.38;;;10.57;;
44110;SDS011;29774;52.664;5.074;2022-10-31T06:17:00;12.63;;;11.20;;
44110;SDS011;29774;52.664;5.074;2022-10-31T06:19:25;13.70;;;11.52;;
44110;SDS011;29774;52.664;5.074;2022-10-31T06:21:51;12.70;;;10.63;;
44110;SDS011;29774;52.664;5.074;2022-10-31T06:24:16;15.88;;;11.38;;
44110;SDS011;29774;52.664;5.074;2022-10-31T06:26:42;16.88;;;12.90;;
44110;SDS011;29774;52.664;5.074;2022-10-31T06:29:07;13.02;;;11.00;;
44110;SDS011;29774;52.664;5.074;2022-10-31T06:31:33;16.25;;;11.77;;
44110;SDS011;29774;52.664;5.074;2022-10-31T06:33:58;16.40;;;11.45;;
44110;SDS011;29774;52.664;5.074;2022-10-31T06:36:24;12.65;;;10.80;;
44110;SDS011;29774;52.664;5.074;2022-10-31T06:38:49;16.60;;;11.75;;
44110;SDS011;29774;52.664;5.074;2022-10-31T06:41:15;15.82;;;11.32;;
44110;SDS011;29774;52.664;5.074;2022-10-31T06:43:40;16.15;;;12.60;;
44110;SDS011;29774;52.664;5.074;2022-10-31T06:46:06;15.25;;;11.23;;
44110;SDS011;29774;52.664;5.074;2022-10-31T06:48:32;15.95;;;11.23;;
44110;SDS011;29774;52.664;5.074;2022-10-31T06:50:58;12.60;;;10.25;;
44110;SDS011;29774;52.664;5.074;2022-10-31T06:53:24;16.35;;;12.45;;
44110;SDS011;29774;52.664;5.074;2022-10-31T06:58:35;15.02;;;12.25;;
44110;SDS011;29774;52.664;5.074;2022-10-31T07:01:00;16.98;;;12.07;;
44110;SDS011;29774;52.664;5.074;2022-10-31T07:03:26;15.25;;;12.23;;
44110;SDS011;29774;52.664;5.074;2022-10-31T07:05:52;15.98;;;12.02;;
44110;SDS011;29774;52.664;5.074;2022-10-31T07:08:19;15.02;;;11.68;;
44110;SDS011;29774;52.664;5.074;2022-10-31T07:13:30;14.27;;;11.18;;
44110;SDS011;29774;52.664;5.074;2022-10-31T07:15:59;17.77;;;13.20;;
44110;SDS011;29774;52.664;5.074;2022-10-31T07:18:26;15.68;;;12.05;;
44110;SDS011;29774;52.664;5.074;2022-10-31T07:20:52;16.15;;;11.18;;
44110;SDS011;29774;52.664;5.074;2022-10-31T07:23:18;14.50;;;11.02;;
44110;SDS011;29774;52.664;5.074;2022-10-31T07:25:43;15.57;;;11.38;;
44110;SDS011;29774;52.664;5.074;2022-10-31T07:28:09;14.68;;;11.65;;
44110;SDS011;29774;52.664;5.074;2022-10-31T07:30:36;15.30;;;11.40;;
44110;SDS011;29774;52.664;5.074;2022-10-31T07:33:02;16.77;;;11.45;;
44110;SDS011;29774;52.664;5.074;2022-10-31T07:35:29;14.13;;;11.52;;
44110;SDS011;29774;52.664;5.074;2022-10-31T07:37:55;14.60;;;11.27;;
44110;SDS011;29774;52.664;5.074;2022-10-31T07:40:21;15.18;;;11.02;;
44110;SDS011;29774;52.664;5.074;2022-10-31T07:42:48;15.27;;;11.48;;
44110;SDS011;29774;52.664;5.074;2022-10-31T07:45:16;16.63;;;11.65;;
44110;SDS011;29774;52.664;5.074;2022-10-31T07:47:47;18.27;;;11.68;;
44110;SDS011;29774;52.664;5.074;2022-10-31T07:50:15;13.90;;;10.88;;
44110;SDS011;29774;52.664;5.074;2022-10-31T07:52:45;16.88;;;11.40;;
44110;SDS011;29774;52.664;5.074;2022-10-31T07:55:11;12.15;;;9.27;;
44110;SDS011;29774;52.664;5.074;2022-10-31T07:57:37;10.98;;;8.20;;
44110;SDS011;29774;52.664;5.074;2022-10-31T08:00:06;12.20;;;9.45;;
44110;SDS011;29774;52.664;5.074;2022-10-31T08:02:33;14.68;;;9.93;;
44110;SDS011;29774;52.664;5.074;2022-10-31T08:04:59;12.82;;;11.10;;
44110;SDS011;29774;52.664;5.074;2022-10-31T08:07:26;14.93;;;11.02;;
44110;SDS011;29774;52.664;5.074;2022-10-31T08:09:53;15.80;;;9.93;;
44110;SDS011;29774;52.664;5.074;2022-10-31T08:12:18;14.63;;;11.00;;
44110;SDS011;29774;52.664;5.074;2022-10-31T08:14:44;15.85;;;11.13;;
44110;SDS011;29774;52.664;5.074;2022-10-31T08:17:10;10.95;;;8.32;;
44110;SDS011;29774;52.664;5.074;2022-10-31T08:19:36;9.85;;;8.82;;
44110;SDS011;29774;52.664;5.074;2022-10-31T08:22:01;15.05;;;11.07;;
44110;SDS011;29774;52.664;5.074;2022-10-31T08:24:27;14.55;;;10.35;;
44110;SDS011;29774;52.664;5.074;2022-10-31T08:26:53;10.77;;;8.45;;
44110;SDS011;29774;52.664;5.074;2022-10-31T08:29:18;12.93;;;8.55;;
44110;SDS011;29774;52.664;5.074;2022-10-31T08:31:44;17.33;;;11.35;;
44110;SDS011;29774;52.664;5.074;2022-10-31T08:34:09;12.60;;;11.18;;
44110;SDS011;29774;52.664;5.074;2022-10-31T08:36:35;15.48;;;11.13;;
44110;SDS011;29774;52.664;5.074;2022-10-31T08:39:01;14.70;;;10.98;;
44110;SDS011;29774;52.664;5.074;2022-10-31T08:41:46;14.27;;;10.88;;
44110;SDS011;29774;52.664;5.074;2022-10-31T08:44:11;13.95;;;11.05;;
44110;SDS011;29774;52.664;5.074;2022-10-31T08:46:37;15.63;;;11.48;;
44110;SDS011;29774;52.664;5.074;2022-10-31T08:49:02;11.63;;;8.23;;
44110;SDS011;29774;52.664;5.074;2022-10-31T08:51:28;14.43;;;10.63;;
44110;SDS011;29774;52.664;5.074;2022-10-31T08:53:53;11.60;;;9.10;;
44110;SDS011;29774;52.664;5.074;2022-10-31T08:56:19;8.73;;;7.00;;
44110;SDS011;29774;52.664;5.074;2022-10-31T08:58:45;9.95;;;8.45;;
44110;SDS011;29774;52.664;5.074;2022-10-31T09:01:10;12.85;;;10.63;;
44110;SDS011;29774;52.664;5.074;2022-10-31T09:03:36;11.77;;;7.70;;
44110;SDS011;29774;52.664;5.074;2022-10-31T09:06:02;14.50;;;9.82;;
44110;SDS011;29774;52.664;5.074;2022-10-31T09:08:31;13.70;;;9.15;;
44110;SDS011;29774;52.664;5.074;2022-10-31T09:10:57;14.20;;;10.85;;
44110;SDS011;29774;52.664;5.074;2022-10-31T09:13:23;14.80;;;9.63;;
44110;SDS011;29774;52.664;5.074;2022-10-31T09:15:49;12.43;;;8.82;;
44110;SDS011;29774;52.664;5.074;2022-10-31T09:18:16;13.93;;;10.35;;
44110;SDS011;29774;52.664;5.074;2022-10-31T09:20:43;14.40;;;10.43;;
44110;SDS011;29774;52.664;5.074;2022-10-31T09:23:12;9.35;;;7.90;;
44110;SDS011;29774;52.664;5.074;2022-10-31T09:25:39;11.32;;;8.77;;
44110;SDS011;29774;52.664;5.074;2022-10-31T09:28:05;14.63;;;10.23;;
44110;SDS011;29774;52.664;5.074;2022-10-31T09:30:33;14.05;;;10.10;;
44110;SDS011;29774;52.664;5.074;2022-10-31T09:33:00;17.55;;;10.93;;
44110;SDS011;29774;52.664;5.074;2022-10-31T09:35:28;15.98;;;10.45;;
44110;SDS011;29774;52.664;5.074;2022-10-31T09:38:00;14.30;;;9.23;;
44110;SDS011;29774;52.664;5.074;2022-10-31T09:40:31;13.02;;;9.15;;
44110;SDS011;29774;52.664;5.074;2022-10-31T09:51:03;11.90;;;9.07;;
44110;SDS011;29774;52.664;5.074;2022-10-31T09:53:34;11.43;;;7.93;;
44110;SDS011;29774;52.664;5.074;2022-10-31T09:59:33;13.45;;;9.70;;
44110;SDS011;29774;52.664;5.074;2022-10-31T10:02:01;11.25;;;8.68;;
44110;SDS011;29774;52.664;5.074;2022-10-31T10:07:17;12.00;;;7.50;;
44110;SDS011;29774;52.664;5.074;2022-10-31T10:09:47;14.40;;;9.07;;
44110;SDS011;29774;52.664;5.074;2022-10-31T10:21:01;11.85;;;8.50;;
44110;SDS011;29774;52.664;5.074;2022-10-31T10:27:04;12.05;;;9.23;;
44110;SDS011;29774;52.664;5.074;2022-10-31T10:29:47;11.18;;;7.80;;
44110;SDS011;29774;52.664;5.074;2022-10-31T10:32:27;12.07;;;8.82;;
44110;SDS011;29774;52.664;5.074;2022-10-31T10:34:57;11.70;;;8.80;;
44110;SDS011;29774;52.664;5.074;2022-10-31T10:37:44;12.05;;;9.02;;
44110;SDS011;29774;52.664;5.074;2022-10-31T10:40:15;13.70;;;9.48;;
44110;SDS011;29774;52.664;5.074;2022-10-31T10:59:37;14.88;;;10.07;;
44110;SDS011;29774;52.664;5.074;2022-10-31T11:02:03;16.20;;;11.38;;
44110;SDS011;29774;52.664;5.074;2022-10-31T11:04:39;13.63;;;11.13;;
44110;SDS011;29774;52.664;5.074;2022-10-31T11:07:06;14.85;;;11.82;;
44110;SDS011;29774;52.664;5.074;2022-10-31T11:09:34;16.30;;;11.35;;
44110;SDS011;29774;52.664;5.074;2022-10-31T11:12:07;16.77;;;9.30;;
44110;SDS011;29774;52.664;5.074;2022-10-31T11:14:47;13.63;;;9.13;;
44110;SDS011;29774;52.664;5.074;2022-10-31T11:17:20;12.98;;;8.88;;
44110;SDS011;29774;52.664;5.074;2022-10-31T11:22:37;12.25;;;8.20;;
44110;SDS011;29774;52.664;5.074;2022-10-31T11:28:04;10.23;;;8.30;;
44110;SDS011;29774;52.664;5.074;2022-10-31T11:30:46;11.55;;;7.55;;
44110;SDS011;29774;52.664;5.074;2022-10-31T11:35:59;10.48;;;7.38;;
44110;SDS011;29774;52.664;5.074;2022-10-31T11:38:33;9.95;;;7.80;;
44110;SDS011;29774;52.664;5.074;2022-10-31T11:43:39;12.23;;;7.05;;
44110;SDS011;29774;52.664;5.074;2022-10-31T11:46:19;7.75;;;6.40;;
44110;SDS011;29774;52.664;5.074;2022-10-31T11:48:50;9.98;;;6.55;;
44110;SDS011;29774;52.664;5.074;2022-10-31T11:51:29;8.63;;;6.57;;
44110;SDS011;29774;52.664;5.074;2022-10-31T11:53:57;6.88;;;5.35;;
44110;SDS011;29774;52.664;5.074;2022-10-31T11:56:24;6.90;;;6.00;;
44110;SDS011;29774;52.664;5.074;2022-10-31T12:01:51;9.50;;;5.15;;
44110;SDS011;29774;52.664;5.074;2022-10-31T12:04:17;9.93;;;6.05;;
44110;SDS011;29774;52.664;5.074;2022-10-31T12:06:45;7.07;;;5.30;;
44110;SDS011;29774;52.664;5.074;2022-10-31T12:09:22;7.35;;;5.00;;
44110;SDS011;29774;52.664;5.074;2022-10-31T12:12:22;8.05;;;5.25;;
44110;SDS011;29774;52.664;5.074;2022-10-31T12:15:09;10.00;;;6.30;;
44110;SDS011;29774;52.664;5.074;2022-10-31T12:21:08;6.70;;;5.43;;
44110;SDS011;29774;52.664;5.074;2022-10-31T12:31:36;10.98;;;5.95;;
44110;SDS011;29774;52.664;5.074;2022-10-31T12:40:01;11.68;;;6.25;;
44110;SDS011;29774;52.664;5.074;2022-10-31T12:45:44;6.40;;;4.20;;
44110;SDS011;29774;52.664;5.074;2022-10-31T12:51:15;10.50;;;6.15;;
44110;SDS011;29774;52.664;5.074;2022-10-31T12:54:19;9.73;;;5.97;;
44110;SDS011;29774;52.664;5.074;2022-10-31T12:59:40;8.25;;;5.72;;
44110;SDS011;29774;52.664;5.074;2022-10-31T13:02:18;12.15;;;6.05;;
44110;SDS011;29774;52.664;5.074;2022-10-31T13:04:54;7.65;;;5.40;;
44110;SDS011;29774;52.664;5.074;2022-10-31T13:07:31;8.10;;;5.47;;
44110;SDS011;29774;52.664;5.074;2022-10-31T13:10:26;9.88;;;6.22;;
44110;SDS011;29774;52.664;5.074;2022-10-31T13:12:52;8.68;;;5.95;;
44110;SDS011;29774;52.664;5.074;2022-10-31T13:18:15;8.25;;;6.50;;
44110;SDS011;29774;52.664;5.074;2022-10-31T13:21:03;15.82;;;6.28;;
44110;SDS011;29774;52.664;5.074;2022-10-31T13:23:35;11.38;;;6.22;;
44110;SDS011;29774;52.664;5.074;2022-10-31T13:26:06;10.77;;;5.88;;
44110;SDS011;29774;52.664;5.074;2022-10-31T13:28:43;9.13;;;5.95;;
44110;SDS011;29774;52.664;5.074;2022-10-31T13:31:13;10.65;;;5.22;;
44110;SDS011;29774;52.664;5.074;2022-10-31T13:33:40;9.68;;;6.82;;
44110;SDS011;29774;52.664;5.074;2022-10-31T13:36:16;7.80;;;5.93;;
44110;SDS011;29774;52.664;5.074;2022-10-31T13:46:43;16.63;;;8.57;;
44110;SDS011;29774;52.664;5.074;2022-10-31T13:52:15;13.85;;;7.57;;
44110;SDS011;29774;52.664;5.074;2022-10-31T13:59:53;11.05;;;6.13;;
44110;SDS011;29774;52.664;5.074;2022-10-31T14:02:28;8.38;;;5.88;;
44110;SDS011;29774;52.664;5.074;2022-10-31T14:05:06;7.88;;;6.03;;
44110;SDS011;29774;52.664;5.074;2022-10-31T14:07:48;10.18;;;6.43;;
44110;SDS011;29774;52.664;5.074;2022-10-31T14:10:35;9.55;;;6.07;;
44110;SDS011;29774;52.664;5.074;2022-10-31T14:13:07;11.60;;;7.32;;
44110;SDS011;29774;52.664;5.074;2022-10-31T14:15:50;13.98;;;7.85;;
44110;SDS011;29774;52.664;5.074;2022-10-31T14:18:23;10.85;;;6.90;;
44110;SDS011;29774;52.664;5.074;2022-10-31T14:20:53;15.13;;;8.82;;
44110;SDS011;29774;52.664;5.074;2022-10-31T14:23:31;11.25;;;7.25;;
44110;SDS011;29774;52.664;5.074;2022-10-31T14:26:17;14.85;;;8.32;;
44110;SDS011;29774;52.664;5.074;2022-10-31T14:29:04;14.43;;;8.20;;
44110;SDS011;29774;52.664;5.074;2022-10-31T14:31:58;18.45;;;9.15;;
44110;SDS011;29774;52.664;5.074;2022-10-31T14:34:52;15.40;;;9.32;;
44110;SDS011;29774;52.664;5.074;2022-10-31T14:40:26;14.23;;;10.25;;
44110;SDS011;29774;52.664;5.074;2022-10-31T14:46:08;14.02;;;9.30;;
44110;SDS011;29774;52.664;5.074;2022-10-31T14:51:47;18.45;;;10.52;;
44110;SDS011;29774;52.664;5.074;2022-10-31T14:54:14;16.85;;;10.70;;
44110;SDS011;29774;52.664;5.074;2022-10-31T14:56:52;15.55;;;9.70;;
44110;SDS011;29774;52.664;5.074;2022-10-31T14:59:22;16.90;;;10.18;;
44110;SDS011;29774;52.664;5.074;2022-10-31T15:01:56;17.05;;;10.80;;
44110;SDS011;29774;52.664;5.074;2022-10-31T15:04:39;18.08;;;11.70;;
44110;SDS011;29774;52.664;5.074;2022-10-31T15:07:15;20.95;;;10.52;;
44110;SDS011;29774;52.664;5.074;2022-10-31T15:09:42;13.98;;;9.27;;
44110;SDS011;29774;52.664;5.074;2022-10-31T15:12:41;16.80;;;10.68;;
44110;SDS011;29774;52.664;5.074;2022-10-31T15:17:58;16.88;;;10.82;;
44110;SDS011;29774;52.664;5.074;2022-10-31T15:20:25;19.10;;;10.77;;
44110;SDS011;29774;52.664;5.074;2022-10-31T15:22:53;15.75;;;10.13;;
44110;SDS011;29774;52.664;5.074;2022-10-31T15:25:22;14.57;;;10.05;;
44110;SDS011;29774;52.664;5.074;2022-10-31T15:27:49;16.67;;;9.80;;
44110;SDS011;29774;52.664;5.074;2022-10-31T15:32:44;15.20;;;10.02;;
44110;SDS011;29774;52.664;5.074;2022-10-31T15:35:10;21.20;;;10.48;;
44110;SDS011;29774;52.664;5.074;2022-10-31T15:37:35;14.20;;;9.00;;
44110;SDS011;29774;52.664;5.074;2022-10-31T15:40:07;12.48;;;9.52;;
44110;SDS011;29774;52.664;5.074;2022-10-31T15:42:39;15.07;;;9.10;;
44110;SDS011;29774;52.664;5.074;2022-10-31T15:47:35;14.15;;;8.60;;
44110;SDS011;29774;52.664;5.074;2022-10-31T15:50:02;13.23;;;8.57;;
44110;SDS011;29774;52.664;5.074;2022-10-31T15:55:02;17.10;;;9.77;;
44110;SDS011;29774;52.664;5.074;2022-10-31T15:57:30;10.95;;;8.52;;
44110;SDS011;29774;52.664;5.074;2022-10-31T15:59:56;16.13;;;9.85;;
44110;SDS011;29774;52.664;5.074;2022-10-31T16:02:22;16.80;;;9.80;;
44110;SDS011;29774;52.664;5.074;2022-10-31T16:04:50;17.88;;;8.20;;
44110;SDS011;29774;52.664;5.074;2022-10-31T16:07:26;12.95;;;9.40;;
44110;SDS011;29774;52.664;5.074;2022-10-31T16:09:55;12.05;;;8.15;;
44110;SDS011;29774;52.664;5.074;2022-10-31T16:12:22;14.02;;;9.55;;
44110;SDS011;29774;52.664;5.074;2022-10-31T16:14:50;13.43;;;8.77;;
44110;SDS011;29774;52.664;5.074;2022-10-31T16:17:18;16.55;;;9.27;;
44110;SDS011;29774;52.664;5.074;2022-10-31T16:19:49;14.75;;;8.95;;
44110;SDS011;29774;52.664;5.074;2022-10-31T16:22:23;12.75;;;8.88;;
44110;SDS011;29774;52.664;5.074;2022-10-31T16:25:02;15.35;;;9.63;;
44110;SDS011;29774;52.664;5.074;2022-10-31T16:27:36;13.65;;;8.55;;
44110;SDS011;29774;52.664;5.074;2022-10-31T16:32:59;13.40;;;8.30;;
44110;SDS011;29774;52.664;5.074;2022-10-31T16:35:27;11.18;;;7.05;;
44110;SDS011;29774;52.664;5.074;2022-10-31T16:37:56;15.30;;;9.10;;
44110;SDS011;29774;52.664;5.074;2022-10-31T16:40:22;15.85;;;9.20;;
44110;SDS011;29774;52.664;5.074;2022-10-31T16:42:48;14.43;;;8.40;;
44110;SDS011;29774;52.664;5.074;2022-10-31T16:45:16;12.73;;;8.80;;
44110;SDS011;29774;52.664;5.074;2022-10-31T16:47:47;14.77;;;8.38;;
44110;SDS011;29774;52.664;5.074;2022-10-31T16:50:34;16.33;;;8.82;;
44110;SDS011;29774;52.664;5.074;2022-10-31T16:52:59;14.23;;;9.00;;
44110;SDS011;29774;52.664;5.074;2022-10-31T16:55:24;11.88;;;7.43;;
44110;SDS011;29774;52.664;5.074;2022-10-31T16:57:51;15.27;;;8.25;;
44110;SDS011;29774;52.664;5.074;2022-10-31T17:00:19;16.13;;;8.90;;
44110;SDS011;29774;52.664;5.074;2022-10-31T17:02:50;18.33;;;9.15;;
44110;SDS011;29774;52.664;5.074;2022-10-31T17:05:17;16.55;;;8.70;;
44110;SDS011;29774;52.664;5.074;2022-10-31T17:07:45;15.77;;;9.55;;
44110;SDS011;29774;52.664;5.074;2022-10-31T17:10:11;10.88;;;7.30;;
44110;SDS011;29774;52.664;5.074;2022-10-31T17:12:40;13.48;;;8.88;;
44110;SDS011;29774;52.664;5.074;2022-10-31T17:15:18;17.02;;;8.95;;
44110;SDS011;29774;52.664;5.074;2022-10-31T17:18:15;12.20;;;8.43;;
44110;SDS011;29774;52.664;5.074;2022-10-31T17:20:42;14.55;;;9.38;;
44110;SDS011;29774;52.664;5.074;2022-10-31T17:23:09;13.50;;;9.02;;
44110;SDS011;29774;52.664;5.074;2022-10-31T17:25:36;18.40;;;9.18;;
44110;SDS011;29774;52.664;5.074;2022-10-31T17:28:02;15.00;;;10.13;;
44110;SDS011;29774;52.664;5.074;2022-10-31T17:30:29;13.60;;;9.50;;
44110;SDS011;29774;52.664;5.074;2022-10-31T17:32:55;14.55;;;10.00;;
44110;SDS011;29774;52.664;5.074;2022-10-31T17:35:21;14.32;;;9.05;;
44110;SDS011;29774;52.664;5.074;2022-10-31T17:37:46;15.15;;;9.43;;
44110;SDS011;29774;52.664;5.074;2022-10-31T17:40:13;18.10;;;9.85;;
44110;SDS011;29774;52.664;5.074;2022-10-31T17:42:41;14.63;;;10.27;;